Weather observations for the past three days for
Laughlin Air Force Base Auxiliary Airfield
Imperial (Metric)
Date Time (cdt) Wind (mph) Vis. (mi.) Weather Sky Cond. Temperature (ºF) Relative Humidity Wind Chill (°F) Heat Index (°F) Pressure Precipitation (in)
Air Dwpt 6 hour altimeter (in) sea level (mb) 1 hr 3 hr 6 hr
Max. Min.
09 14:55 NE 3 10.00 A Few Clouds FEW044 FEW180 87.8 65.7 48% 90 29.77 1006.9
09 13:55 SW 7 10.00 Partly Cloudy FEW032 SCT210 86 67.8 55% 89 29.8 1008.0
09 12:55 S 8 10.00 Partly Cloudy FEW023 FEW190 SCT230 83.5 69.4 83.5 66.7 63% 87 29.83 1009.0
09 11:55 S 6 10.00 NULL NULL 79.9 70.3 73% 83 29.84 1009.4
09 10:55 SE 8 10.00 Partly Cloudy SCT010 78.4 70.9 78% 81 29.86 1010.1
09 09:55 E 6 10.00 Mostly Cloudy BKN008 75.6 70.3 84% 76 29.86 1010.1
09 08:55 Calm 10.00 Mostly Cloudy SCT010 BKN042 70.2 67.1 90% 29.85 1009.8
09 07:55 N 3 8.00 Overcast OVC006 68.5 66 92% 29.85 1009.8
09 06:55 Calm 8.00 Overcast OVC006 66.6 64.4 68.2 64.4 93% 29.82 1008.8
09 05:55 NW 5 8.00 Fair CLR 65.1 63 93% 29.78 1007.4
09 04:55 N 3 7.00 Fair CLR 65.3 63.1 93% 29.77 1007.1
09 03:55 NE 3 8.00 Fair CLR 66.7 64.4 92% 29.77 1007.1
09 02:55 Calm 10.00 Fair CLR 67.1 64.4 91% 29.79 1007.8
09 01:55 NE 6 10.00 Fair CLR 67.1 64.4 91% 29.79 1007.8
09 00:55 NE 7 10.00 Fair CLR 68.2 64.8 82.8 68.2 89% 29.79 1007.9
08 23:55 Calm 10.00 Fair CLR 70.9 65.8 84% 29.81 1008.5
08 22:55 Calm 10.00 Mostly Cloudy BKN190 71.6 66.4 84% 29.82 1008.9
08 21:55 SE 6 10.00 A Few Clouds FEW200 72.7 66.4 81% 29.77 1007.2
08 20:55 E 6 10.00 Fair CLR 75.4 66 73% 77 29.74 1006.2
08 19:55 E 10 10.00 Fair CLR 79.9 65.1 61% 82 29.72 1005.4
08 18:55 Calm 10.00 A Few Clouds FEW037 81 66.7 81.5 71.4 62% 83 29.71 1005.0
08 17:55 NE 3 10.00 A Few Clouds FEW033 80.8 64.6 58% 82 29.71 1005.0
08 16:55 Calm 10.00 A Few Clouds FEW029 79.7 64.6 60% 81 29.72 1005.4
08 15:55 Calm 10.00 Overcast OVC028 77.4 64.2 64% 79 29.75 1006.5
08 14:55 SE 6 10.00 Overcast OVC022 76.1 63.5 65% 78 29.78 1007.5
08 13:55 S 5 10.00 Overcast OVC019 73.6 63.1 70% 29.79 1007.9
08 12:55 SE 3 10.00 Overcast OVC014 71.4 63 71.4 64.4 75% 29.82 1009.0
08 11:55 SE 9 10.00 Overcast OVC013 70.3 63.1 78% 29.85 1010.1
08 10:55 SE 10 10.00 Overcast BKN013 OVC021 68.7 62.2 80% 29.86 1010.4
08 09:55 E 9 10.00 Overcast OVC009 65.8 60.8 84% 29.88 1011.2
08 08:55 E 14 10.00 Overcast OVC007 64.4 60.8 88% 29.89 1011.5
08 07:55 E 9 10.00 Overcast OVC014 64.4 60.4 87% 29.87 1010.8
08 06:55 E 8 10.00 Overcast OVC014 64.6 60.6 64.8 63.7 87% 29.87 1010.8
08 05:55 E 6 6.00 Fog/Mist OVC013 64.6 61 88% 29.87 1010.8
08 04:55 E 5 6.00 Fog/Mist FEW009 OVC017 64.2 61.2 90% 29.87 1010.9
08 03:55 Calm 10.00 Overcast OVC017 64 61.3 91% 29.89 1011.5
08 02:55 NE 3 10.00 Overcast OVC017 63.9 60.8 90% 29.89 1011.5
08 01:55 Calm 10.00 Overcast OVC020 64 60.4 88% 29.91 1012.2
08 00:55 Calm 10.00 Overcast OVC020 63.7 60.1 64.2 62.8 88% 29.92 1012.5
07 23:55 Calm 10.00 Overcast OVC018 63.9 60.3 88% 29.92 1012.5
07 22:55 Calm 10.00 Overcast OVC020 63.3 60.1 89% 29.93 1012.9
07 21:55 NW 6 10.00 Overcast OVC016 63.1 60.1 90% 29.93 1012.9
07 19:55 Calm 10.00 Overcast OVC018 63 59.4 88% 29.92 1012.5
07 18:55 N 6 10.00 Overcast FEW005 OVC019 63 59.9 64.4 61.9 90% 29.92 1012.5 0.05
07 17:55 N 7 10.00 Overcast BKN004 OVC022 62.6 59.9 91% 29.93 1012.8
07 16:55 N 7 2.25 Thunderstorm Light Rain in Vicinity OVC004 62.1 60.1 93% 29.95 1013.5 0.03
07 15:55 N 8 8.00 Light Rain OVC005 63.1 60.8 92% 29.94 1013.1 0.02 0.02
07 14:55 Calm 9.00 Overcast BKN005 OVC012 63 59.9 90% 29.98 1014.5
07 13:55 N 6 10.00 Overcast OVC009 64.2 59 83% 29.99 1014.8
07 12:55 NE 7 10.00 Overcast OVC008 63.5 58.8 69.6 61.2 85% 29.99 1014.8
07 11:55 NE 10 10.00 Overcast BKN007 OVC027 62.4 59.4 90% 29.99 1014.8
07 10:55 N 10 8.00 Light Rain Fog/Mist OVC005 61.3 59 92% 30 1015.1
07 09:55 N 14 8.00 Overcast OVC009 63 60.3 91% 29.97 1014.0
07 08:55 N 13 5.00 Fog/Mist OVC008 67.3 63.5 88% 29.96 1013.5
07 07:55 Calm 10.00 Overcast OVC011 69.3 62.4 79% 29.94 1012.7
07 06:55 E 5 10.00 Thunderstorm Light Rain OVC014 69.3 61.7 72.3 69.3 77% 29.91 1011.6
07 05:55 E 6 10.00 Overcast OVC016 69.6 61 74% 29.9 1011.3
07 04:55 NE 7 10.00 Overcast OVC014 70 61 73% 29.89 1011.0
07 03:55 E 6 10.00 Overcast OVC014 70.2 61.9 75% 29.89 1011.0
07 02:55 E 7 10.00 Mostly Cloudy BKN020 70.2 61.9 75% 29.9 1011.4
07 01:55 NE 3 10.00 Mostly Cloudy FEW032 BKN200 70.5 61.9 74% 29.9 1011.4
07 00:55 E 7 10.00 Partly Cloudy FEW037 SCT220 72.5 62.1 87.3 72.1 70% 29.89 1011.0
06 23:55 E 8 10.00 A Few Clouds FEW049 72.9 63.7 73% 29.89 1011.0
06 22:55 NE 5 10.00 Partly Cloudy SCT190 73.6 64.8 74% 29.84 1009.4
06 21:55 NE 7 10.00 Fair CLR 77 63.9 64% 79 29.82 1008.6
06 20:55 E 6 10.00 Mostly Cloudy BKN210 80.6 63.9 57% 82 29.81 1008.2
06 19:55 E 12 10.00 Partly Cloudy SCT210 84.6 60.8 45% 85 29.78 1007.2
06 18:55 NE 12 10.00 Fair CLR 87.4 57.2 88.5 83.5 36% 86 29.76 1006.4
06 17:55 NE 12 10.00 Fair CLR 87.8 59.7 39% 87 29.74 1005.7
06 16:55 NE 15 10.00 A Few Clouds FEW210 88.3 58.6 37% 87 29.74 1005.7
06 15:55 N 9 10.00 Partly Cloudy FEW180 SCT220 86.5 62.6 45% 87 29.76 1006.4
Date Time (cdt) Wind (mph) Vis. (mi.) Weather Sky Cond. Air Dwpt Max. Min. Relative Humidity Wind Chill (°F) Heat Index (°F) altimeter (in) sea level (mb) 1 hr 3 hr 6 hr
6 hour
Temperature (ºF) Pressure Precipitation (in)